sensor_id;sensor_type;location;lat;lon;timestamp;P1;durP1;ratioP1;P2;durP2;ratioP2
30380;SDS011;17169;50.966;11.038;2023-03-14T00:00:17;1.35;;;0.70;;
30380;SDS011;17169;50.966;11.038;2023-03-14T00:03:20;1.00;;;0.80;;
30380;SDS011;17169;50.966;11.038;2023-03-14T00:06:22;1.42;;;1.00;;
30380;SDS011;17169;50.966;11.038;2023-03-14T00:09:25;1.27;;;0.90;;
30380;SDS011;17169;50.966;11.038;2023-03-14T00:12:30;2.40;;;0.80;;
30380;SDS011;17169;50.966;11.038;2023-03-14T00:15:35;1.55;;;0.85;;
30380;SDS011;17169;50.966;11.038;2023-03-14T00:18:37;2.20;;;0.80;;
30380;SDS011;17169;50.966;11.038;2023-03-14T00:21:40;1.00;;;0.73;;
30380;SDS011;17169;50.966;11.038;2023-03-14T00:24:42;1.30;;;0.88;;
30380;SDS011;17169;50.966;11.038;2023-03-14T00:27:45;1.75;;;1.00;;
30380;SDS011;17169;50.966;11.038;2023-03-14T00:30:49;2.40;;;0.80;;
30380;SDS011;17169;50.966;11.038;2023-03-14T00:33:51;3.08;;;0.70;;
30380;SDS011;17169;50.966;11.038;2023-03-14T00:36:54;3.35;;;0.90;;
30380;SDS011;17169;50.966;11.038;2023-03-14T00:39:57;4.45;;;0.95;;
30380;SDS011;17169;50.966;11.038;2023-03-14T00:42:59;0.82;;;0.70;;
30380;SDS011;17169;50.966;11.038;2023-03-14T00:46:03;1.17;;;0.70;;
30380;SDS011;17169;50.966;11.038;2023-03-14T00:49:06;0.93;;;0.67;;
30380;SDS011;17169;50.966;11.038;2023-03-14T00:52:08;2.92;;;1.00;;
30380;SDS011;17169;50.966;11.038;2023-03-14T00:55:11;3.60;;;1.02;;
30380;SDS011;17169;50.966;11.038;2023-03-14T00:58:14;1.15;;;0.80;;
30380;SDS011;17169;50.966;11.038;2023-03-14T01:01:19;1.10;;;0.80;;
30380;SDS011;17169;50.966;11.038;2023-03-14T01:04:21;2.25;;;0.80;;
30380;SDS011;17169;50.966;11.038;2023-03-14T01:07:23;1.75;;;0.77;;
30380;SDS011;17169;50.966;11.038;2023-03-14T01:10:26;1.80;;;0.80;;
30380;SDS011;17169;50.966;11.038;2023-03-14T01:13:29;4.90;;;0.98;;
30380;SDS011;17169;50.966;11.038;2023-03-14T01:16:33;1.75;;;0.75;;
30380;SDS011;17169;50.966;11.038;2023-03-14T01:19:37;2.85;;;0.80;;
30380;SDS011;17169;50.966;11.038;2023-03-14T01:22:40;2.25;;;0.85;;
30380;SDS011;17169;50.966;11.038;2023-03-14T01:25:43;2.67;;;1.63;;
30380;SDS011;17169;50.966;11.038;2023-03-14T01:28:45;2.40;;;0.88;;
30380;SDS011;17169;50.966;11.038;2023-03-14T01:31:50;4.40;;;0.63;;
30380;SDS011;17169;50.966;11.038;2023-03-14T01:34:52;1.38;;;0.90;;
30380;SDS011;17169;50.966;11.038;2023-03-14T01:37:54;1.60;;;1.50;;
30380;SDS011;17169;50.966;11.038;2023-03-14T01:40:57;5.40;;;2.03;;
30380;SDS011;17169;50.966;11.038;2023-03-14T01:44:00;0.80;;;0.63;;
30380;SDS011;17169;50.966;11.038;2023-03-14T01:47:03;1.08;;;0.68;;
30380;SDS011;17169;50.966;11.038;2023-03-14T01:50:08;1.48;;;0.80;;
30380;SDS011;17169;50.966;11.038;2023-03-14T01:56:16;1.10;;;0.77;;
30380;SDS011;17169;50.966;11.038;2023-03-14T01:59:20;2.50;;;0.70;;
30380;SDS011;17169;50.966;11.038;2023-03-14T02:02:24;2.15;;;0.90;;
30380;SDS011;17169;50.966;11.038;2023-03-14T02:05:30;3.38;;;0.70;;
30380;SDS011;17169;50.966;11.038;2023-03-14T02:08:36;2.25;;;1.05;;
30380;SDS011;17169;50.966;11.038;2023-03-14T02:11:39;3.35;;;1.00;;
30380;SDS011;17169;50.966;11.038;2023-03-14T02:14:41;5.60;;;1.35;;
30380;SDS011;17169;50.966;11.038;2023-03-14T02:17:49;3.13;;;0.95;;
30380;SDS011;17169;50.966;11.038;2023-03-14T02:20:53;1.90;;;0.97;;
30380;SDS011;17169;50.966;11.038;2023-03-14T02:24:04;3.90;;;1.10;;
30380;SDS011;17169;50.966;11.038;2023-03-14T02:27:16;3.70;;;0.90;;
30380;SDS011;17169;50.966;11.038;2023-03-14T02:30:20;2.08;;;0.88;;
30380;SDS011;17169;50.966;11.038;2023-03-14T02:33:25;4.68;;;1.05;;
30380;SDS011;17169;50.966;11.038;2023-03-14T02:36:28;5.10;;;0.95;;
30380;SDS011;17169;50.966;11.038;2023-03-14T02:39:33;4.85;;;0.90;;
30380;SDS011;17169;50.966;11.038;2023-03-14T02:42:39;3.90;;;1.20;;
30380;SDS011;17169;50.966;11.038;2023-03-14T02:45:42;4.93;;;0.90;;
30380;SDS011;17169;50.966;11.038;2023-03-14T02:48:47;3.83;;;1.00;;
30380;SDS011;17169;50.966;11.038;2023-03-14T02:51:53;4.68;;;1.15;;
30380;SDS011;17169;50.966;11.038;2023-03-14T02:54:55;3.33;;;1.15;;
30380;SDS011;17169;50.966;11.038;2023-03-14T02:57:59;4.00;;;1.08;;
30380;SDS011;17169;50.966;11.038;2023-03-14T03:01:01;3.83;;;1.40;;
30380;SDS011;17169;50.966;11.038;2023-03-14T03:04:04;5.80;;;1.83;;
30380;SDS011;17169;50.966;11.038;2023-03-14T03:07:07;4.72;;;1.10;;
30380;SDS011;17169;50.966;11.038;2023-03-14T03:10:09;4.43;;;1.15;;
30380;SDS011;17169;50.966;11.038;2023-03-14T03:13:14;3.85;;;1.08;;
30380;SDS011;17169;50.966;11.038;2023-03-14T03:16:16;4.80;;;1.33;;
30380;SDS011;17169;50.966;11.038;2023-03-14T03:19:18;3.92;;;1.02;;
30380;SDS011;17169;50.966;11.038;2023-03-14T03:22:21;4.78;;;1.23;;
30380;SDS011;17169;50.966;11.038;2023-03-14T03:25:23;3.72;;;1.40;;
30380;SDS011;17169;50.966;11.038;2023-03-14T03:28:27;4.68;;;1.20;;
30380;SDS011;17169;50.966;11.038;2023-03-14T03:31:29;5.07;;;1.55;;
30380;SDS011;17169;50.966;11.038;2023-03-14T03:34:32;7.32;;;1.27;;
30380;SDS011;17169;50.966;11.038;2023-03-14T03:37:35;3.17;;;1.27;;
30380;SDS011;17169;50.966;11.038;2023-03-14T03:40:37;3.13;;;1.00;;
30380;SDS011;17169;50.966;11.038;2023-03-14T03:43:41;4.35;;;1.30;;
30380;SDS011;17169;50.966;11.038;2023-03-14T03:46:44;3.10;;;1.50;;
30380;SDS011;17169;50.966;11.038;2023-03-14T03:49:46;4.45;;;1.20;;
30380;SDS011;17169;50.966;11.038;2023-03-14T03:52:48;4.03;;;1.00;;
30380;SDS011;17169;50.966;11.038;2023-03-14T03:55:51;6.45;;;1.30;;
30380;SDS011;17169;50.966;11.038;2023-03-14T03:58:55;6.22;;;1.20;;
30380;SDS011;17169;50.966;11.038;2023-03-14T04:01:57;6.18;;;1.55;;
30380;SDS011;17169;50.966;11.038;2023-03-14T04:05:00;7.68;;;1.55;;
30380;SDS011;17169;50.966;11.038;2023-03-14T04:08:03;5.05;;;1.48;;
30380;SDS011;17169;50.966;11.038;2023-03-14T04:11:06;6.07;;;1.20;;
30380;SDS011;17169;50.966;11.038;2023-03-14T04:14:10;5.78;;;1.38;;
30380;SDS011;17169;50.966;11.038;2023-03-14T04:17:12;4.93;;;1.20;;
30380;SDS011;17169;50.966;11.038;2023-03-14T04:20:14;7.93;;;1.30;;
30380;SDS011;17169;50.966;11.038;2023-03-14T04:23:17;6.22;;;1.20;;
30380;SDS011;17169;50.966;11.038;2023-03-14T04:26:19;3.85;;;0.98;;
30380;SDS011;17169;50.966;11.038;2023-03-14T04:29:23;6.65;;;1.20;;
30380;SDS011;17169;50.966;11.038;2023-03-14T04:32:26;6.07;;;1.30;;
30380;SDS011;17169;50.966;11.038;2023-03-14T04:35:29;4.70;;;1.30;;
30380;SDS011;17169;50.966;11.038;2023-03-14T04:38:32;5.25;;;1.38;;
30380;SDS011;17169;50.966;11.038;2023-03-14T04:41:34;4.53;;;1.00;;
30380;SDS011;17169;50.966;11.038;2023-03-14T04:44:38;3.50;;;0.82;;
30380;SDS011;17169;50.966;11.038;2023-03-14T04:47:40;4.47;;;1.00;;
30380;SDS011;17169;50.966;11.038;2023-03-14T04:50:43;2.78;;;1.10;;
30380;SDS011;17169;50.966;11.038;2023-03-14T04:53:46;2.40;;;0.95;;
30380;SDS011;17169;50.966;11.038;2023-03-14T04:56:49;6.28;;;1.30;;
30380;SDS011;17169;50.966;11.038;2023-03-14T04:59:52;2.88;;;1.10;;
30380;SDS011;17169;50.966;11.038;2023-03-14T05:02:55;2.15;;;0.90;;
30380;SDS011;17169;50.966;11.038;2023-03-14T05:05:57;6.72;;;1.20;;
30380;SDS011;17169;50.966;11.038;2023-03-14T05:09:01;4.25;;;1.27;;
30380;SDS011;17169;50.966;11.038;2023-03-14T05:12:05;4.85;;;1.23;;
30380;SDS011;17169;50.966;11.038;2023-03-14T05:15:10;5.18;;;1.02;;
30380;SDS011;17169;50.966;11.038;2023-03-14T05:18:12;3.65;;;1.05;;
30380;SDS011;17169;50.966;11.038;2023-03-14T05:21:15;4.75;;;1.17;;
30380;SDS011;17169;50.966;11.038;2023-03-14T05:24:17;2.40;;;1.00;;
30380;SDS011;17169;50.966;11.038;2023-03-14T05:27:19;3.92;;;1.40;;
30380;SDS011;17169;50.966;11.038;2023-03-14T05:30:23;3.60;;;0.93;;
30380;SDS011;17169;50.966;11.038;2023-03-14T05:33:25;3.28;;;1.00;;
30380;SDS011;17169;50.966;11.038;2023-03-14T05:36:28;2.42;;;1.00;;
30380;SDS011;17169;50.966;11.038;2023-03-14T05:39:30;1.63;;;0.85;;
30380;SDS011;17169;50.966;11.038;2023-03-14T05:42:32;2.55;;;1.00;;
30380;SDS011;17169;50.966;11.038;2023-03-14T05:45:36;2.03;;;0.90;;
30380;SDS011;17169;50.966;11.038;2023-03-14T05:48:38;3.70;;;1.00;;
30380;SDS011;17169;50.966;11.038;2023-03-14T05:51:41;3.08;;;1.15;;
30380;SDS011;17169;50.966;11.038;2023-03-14T05:54:44;6.78;;;1.30;;
30380;SDS011;17169;50.966;11.038;2023-03-14T05:57:46;3.85;;;1.30;;
30380;SDS011;17169;50.966;11.038;2023-03-14T06:00:50;6.63;;;1.45;;
30380;SDS011;17169;50.966;11.038;2023-03-14T06:03:52;5.75;;;1.30;;
30380;SDS011;17169;50.966;11.038;2023-03-14T06:06:55;2.65;;;0.90;;
30380;SDS011;17169;50.966;11.038;2023-03-14T06:09:57;3.45;;;1.20;;
30380;SDS011;17169;50.966;11.038;2023-03-14T06:12:59;4.75;;;1.00;;
30380;SDS011;17169;50.966;11.038;2023-03-14T06:16:03;5.30;;;0.90;;
30380;SDS011;17169;50.966;11.038;2023-03-14T06:19:06;7.05;;;1.00;;
30380;SDS011;17169;50.966;11.038;2023-03-14T06:22:09;5.47;;;1.10;;
30380;SDS011;17169;50.966;11.038;2023-03-14T06:25:11;4.35;;;1.00;;
30380;SDS011;17169;50.966;11.038;2023-03-14T06:28:14;2.55;;;1.10;;
30380;SDS011;17169;50.966;11.038;2023-03-14T06:31:17;9.43;;;1.15;;
30380;SDS011;17169;50.966;11.038;2023-03-14T06:34:20;3.03;;;0.80;;
30380;SDS011;17169;50.966;11.038;2023-03-14T06:37:26;2.63;;;1.10;;
30380;SDS011;17169;50.966;11.038;2023-03-14T06:40:29;4.28;;;1.00;;
30380;SDS011;17169;50.966;11.038;2023-03-14T06:43:32;4.63;;;1.00;;
30380;SDS011;17169;50.966;11.038;2023-03-14T06:46:35;3.63;;;1.10;;
30380;SDS011;17169;50.966;11.038;2023-03-14T06:49:38;2.38;;;0.98;;
30380;SDS011;17169;50.966;11.038;2023-03-14T06:52:40;3.80;;;0.80;;
30380;SDS011;17169;50.966;11.038;2023-03-14T06:55:48;2.40;;;0.77;;
30380;SDS011;17169;50.966;11.038;2023-03-14T06:58:50;4.85;;;1.10;;
30380;SDS011;17169;50.966;11.038;2023-03-14T07:01:54;2.67;;;0.90;;
30380;SDS011;17169;50.966;11.038;2023-03-14T07:04:56;6.07;;;1.63;;
30380;SDS011;17169;50.966;11.038;2023-03-14T07:07:59;3.10;;;0.98;;
30380;SDS011;17169;50.966;11.038;2023-03-14T07:11:02;4.03;;;0.70;;
30380;SDS011;17169;50.966;11.038;2023-03-14T07:14:04;2.35;;;0.77;;
30380;SDS011;17169;50.966;11.038;2023-03-14T07:17:08;2.42;;;1.00;;
30380;SDS011;17169;50.966;11.038;2023-03-14T07:20:10;7.25;;;1.00;;
30380;SDS011;17169;50.966;11.038;2023-03-14T07:23:13;5.07;;;0.82;;
30380;SDS011;17169;50.966;11.038;2023-03-14T07:26:15;4.40;;;1.05;;
30380;SDS011;17169;50.966;11.038;2023-03-14T07:29:18;2.03;;;0.90;;
30380;SDS011;17169;50.966;11.038;2023-03-14T07:32:21;4.03;;;0.80;;
30380;SDS011;17169;50.966;11.038;2023-03-14T07:35:24;5.60;;;0.75;;
30380;SDS011;17169;50.966;11.038;2023-03-14T07:38:26;2.22;;;0.70;;
30380;SDS011;17169;50.966;11.038;2023-03-14T07:41:29;4.00;;;1.00;;
30380;SDS011;17169;50.966;11.038;2023-03-14T07:44:32;3.25;;;0.85;;
30380;SDS011;17169;50.966;11.038;2023-03-14T07:47:36;3.50;;;1.02;;
30380;SDS011;17169;50.966;11.038;2023-03-14T07:50:38;2.80;;;0.77;;
30380;SDS011;17169;50.966;11.038;2023-03-14T07:53:41;4.00;;;0.93;;
30380;SDS011;17169;50.966;11.038;2023-03-14T07:56:43;1.85;;;0.68;;
30380;SDS011;17169;50.966;11.038;2023-03-14T07:59:46;1.45;;;0.50;;
30380;SDS011;17169;50.966;11.038;2023-03-14T08:02:49;4.78;;;0.80;;
30380;SDS011;17169;50.966;11.038;2023-03-14T08:05:52;2.65;;;0.95;;
30380;SDS011;17169;50.966;11.038;2023-03-14T08:08:54;1.10;;;0.70;;
30380;SDS011;17169;50.966;11.038;2023-03-14T08:11:57;2.03;;;0.50;;
30380;SDS011;17169;50.966;11.038;2023-03-14T08:14:59;4.30;;;1.02;;
30380;SDS011;17169;50.966;11.038;2023-03-14T08:18:03;2.25;;;0.80;;
30380;SDS011;17169;50.966;11.038;2023-03-14T08:21:06;3.13;;;1.15;;
30380;SDS011;17169;50.966;11.038;2023-03-14T08:24:09;3.80;;;0.80;;
30380;SDS011;17169;50.966;11.038;2023-03-14T08:27:11;3.30;;;0.63;;
30380;SDS011;17169;50.966;11.038;2023-03-14T08:30:15;1.40;;;0.55;;
30380;SDS011;17169;50.966;11.038;2023-03-14T08:33:20;2.20;;;0.70;;
30380;SDS011;17169;50.966;11.038;2023-03-14T08:36:22;1.45;;;0.75;;
30380;SDS011;17169;50.966;11.038;2023-03-14T08:39:25;3.78;;;0.90;;
30380;SDS011;17169;50.966;11.038;2023-03-14T08:42:27;0.50;;;0.50;;
30380;SDS011;17169;50.966;11.038;2023-03-14T08:45:29;2.95;;;0.80;;
30380;SDS011;17169;50.966;11.038;2023-03-14T08:48:33;4.03;;;0.80;;
30380;SDS011;17169;50.966;11.038;2023-03-14T08:51:35;1.60;;;0.70;;
30380;SDS011;17169;50.966;11.038;2023-03-14T08:54:38;1.25;;;0.80;;
30380;SDS011;17169;50.966;11.038;2023-03-14T08:57:40;2.33;;;0.70;;
30380;SDS011;17169;50.966;11.038;2023-03-14T09:00:42;2.75;;;0.70;;
30380;SDS011;17169;50.966;11.038;2023-03-14T09:03:46;2.67;;;0.75;;
30380;SDS011;17169;50.966;11.038;2023-03-14T09:06:49;1.42;;;0.70;;
30380;SDS011;17169;50.966;11.038;2023-03-14T09:09:51;1.92;;;0.75;;
30380;SDS011;17169;50.966;11.038;2023-03-14T09:12:54;1.10;;;0.60;;
30380;SDS011;17169;50.966;11.038;2023-03-14T09:15:57;1.17;;;0.55;;
30380;SDS011;17169;50.966;11.038;2023-03-14T09:19:01;3.72;;;0.60;;
30380;SDS011;17169;50.966;11.038;2023-03-14T09:22:03;2.20;;;0.80;;
30380;SDS011;17169;50.966;11.038;2023-03-14T09:25:06;1.60;;;0.52;;
30380;SDS011;17169;50.966;11.038;2023-03-14T09:28:09;1.80;;;0.68;;
30380;SDS011;17169;50.966;11.038;2023-03-14T09:31:11;4.60;;;0.68;;
30380;SDS011;17169;50.966;11.038;2023-03-14T09:34:15;2.55;;;0.60;;
30380;SDS011;17169;50.966;11.038;2023-03-14T09:37:18;0.75;;;0.50;;
30380;SDS011;17169;50.966;11.038;2023-03-14T09:40:21;1.88;;;0.70;;
30380;SDS011;17169;50.966;11.038;2023-03-14T09:43:24;2.13;;;0.57;;
30380;SDS011;17169;50.966;11.038;2023-03-14T09:46:31;2.67;;;0.57;;
30380;SDS011;17169;50.966;11.038;2023-03-14T09:49:39;1.75;;;0.60;;
30380;SDS011;17169;50.966;11.038;2023-03-14T09:52:42;1.48;;;0.50;;
30380;SDS011;17169;50.966;11.038;2023-03-14T09:55:49;1.38;;;0.70;;
30380;SDS011;17169;50.966;11.038;2023-03-14T09:58:53;3.63;;;1.00;;
30380;SDS011;17169;50.966;11.038;2023-03-14T10:02:00;1.35;;;0.60;;
30380;SDS011;17169;50.966;11.038;2023-03-14T10:05:07;2.33;;;0.70;;
30380;SDS011;17169;50.966;11.038;2023-03-14T10:08:15;1.50;;;0.60;;
30380;SDS011;17169;50.966;11.038;2023-03-14T10:11:18;3.70;;;0.60;;
30380;SDS011;17169;50.966;11.038;2023-03-14T10:14:29;4.63;;;0.77;;
30380;SDS011;17169;50.966;11.038;2023-03-14T10:17:38;2.17;;;0.60;;
30380;SDS011;17169;50.966;11.038;2023-03-14T10:20:44;5.18;;;1.42;;
30380;SDS011;17169;50.966;11.038;2023-03-14T10:23:47;0.75;;;0.55;;
30380;SDS011;17169;50.966;11.038;2023-03-14T10:26:52;1.38;;;0.65;;
30380;SDS011;17169;50.966;11.038;2023-03-14T10:29:56;1.58;;;0.73;;
30380;SDS011;17169;50.966;11.038;2023-03-14T10:33:07;4.03;;;0.50;;
30380;SDS011;17169;50.966;11.038;2023-03-14T10:36:19;6.13;;;0.80;;
30380;SDS011;17169;50.966;11.038;2023-03-14T10:39:26;1.40;;;0.70;;
30380;SDS011;17169;50.966;11.038;2023-03-14T10:42:39;1.60;;;0.93;;
30380;SDS011;17169;50.966;11.038;2023-03-14T10:45:51;1.48;;;0.60;;
30380;SDS011;17169;50.966;11.038;2023-03-14T10:48:58;0.63;;;0.57;;
30380;SDS011;17169;50.966;11.038;2023-03-14T10:52:02;0.93;;;0.50;;
30380;SDS011;17169;50.966;11.038;2023-03-14T10:55:15;1.27;;;0.50;;
30380;SDS011;17169;50.966;11.038;2023-03-14T10:58:19;1.13;;;0.50;;
30380;SDS011;17169;50.966;11.038;2023-03-14T11:01:26;0.93;;;0.50;;
30380;SDS011;17169;50.966;11.038;2023-03-14T11:04:45;0.77;;;0.63;;
30380;SDS011;17169;50.966;11.038;2023-03-14T11:08:04;1.25;;;0.60;;
30380;SDS011;17169;50.966;11.038;2023-03-14T11:11:12;1.02;;;0.70;;
30380;SDS011;17169;50.966;11.038;2023-03-14T11:14:24;4.72;;;0.52;;
30380;SDS011;17169;50.966;11.038;2023-03-14T11:17:34;1.85;;;0.60;;
30380;SDS011;17169;50.966;11.038;2023-03-14T11:20:43;1.13;;;0.63;;
30380;SDS011;17169;50.966;11.038;2023-03-14T11:23:58;3.78;;;0.65;;
30380;SDS011;17169;50.966;11.038;2023-03-14T11:27:07;0.82;;;0.50;;
30380;SDS011;17169;50.966;11.038;2023-03-14T11:30:18;6.25;;;0.77;;
30380;SDS011;17169;50.966;11.038;2023-03-14T11:33:23;4.00;;;0.63;;
30380;SDS011;17169;50.966;11.038;2023-03-14T11:36:30;2.42;;;0.95;;
30380;SDS011;17169;50.966;11.038;2023-03-14T11:39:40;0.40;;;0.40;;
30380;SDS011;17169;50.966;11.038;2023-03-14T11:42:47;4.93;;;0.47;;
30380;SDS011;17169;50.966;11.038;2023-03-14T11:45:56;0.50;;;0.50;;
30380;SDS011;17169;50.966;11.038;2023-03-14T11:49:06;0.77;;;0.40;;
30380;SDS011;17169;50.966;11.038;2023-03-14T11:52:16;3.30;;;0.50;;
30380;SDS011;17169;50.966;11.038;2023-03-14T11:55:24;0.40;;;0.40;;
30380;SDS011;17169;50.966;11.038;2023-03-14T11:58:31;1.65;;;0.50;;
30380;SDS011;17169;50.966;11.038;2023-03-14T12:01:52;0.57;;;0.50;;
30380;SDS011;17169;50.966;11.038;2023-03-14T12:08:38;2.42;;;1.23;;
30380;SDS011;17169;50.966;11.038;2023-03-14T12:11:48;1.45;;;0.60;;
30380;SDS011;17169;50.966;11.038;2023-03-14T12:14:56;0.95;;;0.63;;
30380;SDS011;17169;50.966;11.038;2023-03-14T12:18:00;0.35;;;0.30;;
30380;SDS011;17169;50.966;11.038;2023-03-14T12:21:03;0.75;;;0.50;;
30380;SDS011;17169;50.966;11.038;2023-03-14T12:24:14;0.93;;;0.50;;
30380;SDS011;17169;50.966;11.038;2023-03-14T12:27:44;0.57;;;0.50;;
30380;SDS011;17169;50.966;11.038;2023-03-14T12:34:44;0.98;;;0.40;;
30380;SDS011;17169;50.966;11.038;2023-03-14T12:37:47;2.40;;;0.50;;
30380;SDS011;17169;50.966;11.038;2023-03-14T12:40:54;1.05;;;0.50;;
30380;SDS011;17169;50.966;11.038;2023-03-14T12:51:00;0.43;;;0.40;;
30380;SDS011;17169;50.966;11.038;2023-03-14T12:57:39;1.25;;;0.60;;
30380;SDS011;17169;50.966;11.038;2023-03-14T13:00:49;0.73;;;0.35;;
30380;SDS011;17169;50.966;11.038;2023-03-14T13:03:59;1.45;;;0.60;;
30380;SDS011;17169;50.966;11.038;2023-03-14T13:07:11;3.00;;;0.70;;
30380;SDS011;17169;50.966;11.038;2023-03-14T13:10:16;5.50;;;0.55;;
30380;SDS011;17169;50.966;11.038;2023-03-14T13:13:21;0.50;;;0.50;;
30380;SDS011;17169;50.966;11.038;2023-03-14T13:16:27;4.75;;;2.40;;
30380;SDS011;17169;50.966;11.038;2023-03-14T13:19:31;1.67;;;0.50;;
30380;SDS011;17169;50.966;11.038;2023-03-14T13:22:35;0.68;;;0.50;;
30380;SDS011;17169;50.966;11.038;2023-03-14T13:25:39;0.98;;;0.40;;
30380;SDS011;17169;50.966;11.038;2023-03-14T13:28:41;1.25;;;0.50;;
30380;SDS011;17169;50.966;11.038;2023-03-14T13:31:44;0.75;;;0.55;;
30380;SDS011;17169;50.966;11.038;2023-03-14T13:34:48;0.82;;;0.60;;
30380;SDS011;17169;50.966;11.038;2023-03-14T13:37:57;1.27;;;0.93;;
30380;SDS011;17169;50.966;11.038;2023-03-14T13:41:03;0.68;;;0.40;;
30380;SDS011;17169;50.966;11.038;2023-03-14T13:44:07;0.50;;;0.50;;
30380;SDS011;17169;50.966;11.038;2023-03-14T13:47:15;0.52;;;0.40;;
30380;SDS011;17169;50.966;11.038;2023-03-14T13:50:21;0.68;;;0.60;;
30380;SDS011;17169;50.966;11.038;2023-03-14T13:53:24;0.47;;;0.40;;
30380;SDS011;17169;50.966;11.038;2023-03-14T13:56:27;0.82;;;0.40;;
30380;SDS011;17169;50.966;11.038;2023-03-14T13:59:31;0.40;;;0.40;;
30380;SDS011;17169;50.966;11.038;2023-03-14T14:02:35;0.40;;;0.40;;
30380;SDS011;17169;50.966;11.038;2023-03-14T14:05:40;0.45;;;0.40;;
30380;SDS011;17169;50.966;11.038;2023-03-14T14:08:46;0.50;;;0.50;;
30380;SDS011;17169;50.966;11.038;2023-03-14T14:11:50;0.60;;;0.50;;
30380;SDS011;17169;50.966;11.038;2023-03-14T14:14:57;1.38;;;0.40;;
30380;SDS011;17169;50.966;11.038;2023-03-14T14:18:01;0.77;;;0.50;;
30380;SDS011;17169;50.966;11.038;2023-03-14T14:21:09;0.95;;;0.50;;
30380;SDS011;17169;50.966;11.038;2023-03-14T14:24:13;2.42;;;0.68;;
30380;SDS011;17169;50.966;11.038;2023-03-14T14:27:17;1.05;;;0.60;;
30380;SDS011;17169;50.966;11.038;2023-03-14T14:30:27;1.60;;;0.75;;
30380;SDS011;17169;50.966;11.038;2023-03-14T14:33:37;2.72;;;0.80;;
30380;SDS011;17169;50.966;11.038;2023-03-14T14:36:43;1.50;;;0.73;;
30380;SDS011;17169;50.966;11.038;2023-03-14T14:39:50;2.28;;;0.70;;
30380;SDS011;17169;50.966;11.038;2023-03-14T14:42:54;1.85;;;0.80;;
30380;SDS011;17169;50.966;11.038;2023-03-14T14:46:05;1.65;;;0.60;;
30380;SDS011;17169;50.966;11.038;2023-03-14T14:49:09;0.68;;;0.50;;
30380;SDS011;17169;50.966;11.038;2023-03-14T14:52:17;1.80;;;1.17;;
30380;SDS011;17169;50.966;11.038;2023-03-14T14:55:20;1.83;;;0.70;;
30380;SDS011;17169;50.966;11.038;2023-03-14T14:58:24;0.30;;;0.30;;
30380;SDS011;17169;50.966;11.038;2023-03-14T15:01:30;1.92;;;0.57;;
30380;SDS011;17169;50.966;11.038;2023-03-14T15:04:35;0.52;;;0.50;;
30380;SDS011;17169;50.966;11.038;2023-03-14T15:07:39;0.60;;;0.50;;
30380;SDS011;17169;50.966;11.038;2023-03-14T15:10:41;1.75;;;0.50;;
30380;SDS011;17169;50.966;11.038;2023-03-14T15:13:44;1.17;;;0.50;;
30380;SDS011;17169;50.966;11.038;2023-03-14T15:16:47;0.68;;;0.57;;
30380;SDS011;17169;50.966;11.038;2023-03-14T15:19:49;0.85;;;0.60;;
30380;SDS011;17169;50.966;11.038;2023-03-14T15:22:53;1.48;;;0.60;;
30380;SDS011;17169;50.966;11.038;2023-03-14T15:25:55;0.57;;;0.57;;
30380;SDS011;17169;50.966;11.038;2023-03-14T15:28:58;0.65;;;0.52;;
30380;SDS011;17169;50.966;11.038;2023-03-14T15:32:00;0.50;;;0.50;;
30380;SDS011;17169;50.966;11.038;2023-03-14T15:35:03;1.17;;;0.57;;
30380;SDS011;17169;50.966;11.038;2023-03-14T15:38:09;1.58;;;0.55;;
30380;SDS011;17169;50.966;11.038;2023-03-14T15:41:13;2.60;;;1.00;;
30380;SDS011;17169;50.966;11.038;2023-03-14T15:44:16;0.63;;;0.50;;
30380;SDS011;17169;50.966;11.038;2023-03-14T15:47:18;0.68;;;0.60;;
30380;SDS011;17169;50.966;11.038;2023-03-14T15:50:20;0.68;;;0.63;;
30380;SDS011;17169;50.966;11.038;2023-03-14T15:53:24;1.67;;;0.60;;
30380;SDS011;17169;50.966;11.038;2023-03-14T15:56:27;0.90;;;0.65;;
30380;SDS011;17169;50.966;11.038;2023-03-14T15:59:31;0.70;;;0.70;;
30380;SDS011;17169;50.966;11.038;2023-03-14T16:02:33;2.58;;;0.80;;
30380;SDS011;17169;50.966;11.038;2023-03-14T16:05:40;5.00;;;1.30;;
30380;SDS011;17169;50.966;11.038;2023-03-14T16:08:44;2.10;;;0.90;;
30380;SDS011;17169;50.966;11.038;2023-03-14T16:11:46;3.20;;;0.90;;
30380;SDS011;17169;50.966;11.038;2023-03-14T16:14:49;4.82;;;0.88;;
30380;SDS011;17169;50.966;11.038;2023-03-14T16:17:52;4.68;;;1.10;;
30380;SDS011;17169;50.966;11.038;2023-03-14T16:20:55;1.52;;;0.90;;
30380;SDS011;17169;50.966;11.038;2023-03-14T16:24:00;4.90;;;1.20;;
30380;SDS011;17169;50.966;11.038;2023-03-14T16:27:06;2.65;;;1.05;;
30380;SDS011;17169;50.966;11.038;2023-03-14T16:30:09;4.15;;;1.63;;
30380;SDS011;17169;50.966;11.038;2023-03-14T16:33:13;2.95;;;1.45;;
30380;SDS011;17169;50.966;11.038;2023-03-14T16:36:16;1.75;;;1.00;;
30380;SDS011;17169;50.966;11.038;2023-03-14T16:39:20;3.35;;;1.17;;
30380;SDS011;17169;50.966;11.038;2023-03-14T16:42:22;4.47;;;1.25;;
30380;SDS011;17169;50.966;11.038;2023-03-14T16:45:25;6.43;;;1.30;;
30380;SDS011;17169;50.966;11.038;2023-03-14T16:48:29;4.10;;;1.92;;
30380;SDS011;17169;50.966;11.038;2023-03-14T16:51:31;3.75;;;1.23;;
30380;SDS011;17169;50.966;11.038;2023-03-14T16:54:35;4.10;;;1.13;;
30380;SDS011;17169;50.966;11.038;2023-03-14T16:57:38;5.65;;;1.40;;
30380;SDS011;17169;50.966;11.038;2023-03-14T17:00:40;3.75;;;1.48;;
30380;SDS011;17169;50.966;11.038;2023-03-14T17:03:43;6.20;;;1.58;;
30380;SDS011;17169;50.966;11.038;2023-03-14T17:06:46;4.18;;;1.60;;
30380;SDS011;17169;50.966;11.038;2023-03-14T17:09:50;4.72;;;1.77;;
30380;SDS011;17169;50.966;11.038;2023-03-14T17:12:54;8.65;;;1.60;;
30380;SDS011;17169;50.966;11.038;2023-03-14T17:15:57;5.25;;;1.30;;
30380;SDS011;17169;50.966;11.038;2023-03-14T17:19:00;5.10;;;1.67;;
30380;SDS011;17169;50.966;11.038;2023-03-14T17:22:03;6.68;;;1.70;;
30380;SDS011;17169;50.966;11.038;2023-03-14T17:25:07;4.72;;;2.38;;
30380;SDS011;17169;50.966;11.038;2023-03-14T17:28:09;10.50;;;1.80;;
30380;SDS011;17169;50.966;11.038;2023-03-14T17:31:12;14.15;;;2.05;;
30380;SDS011;17169;50.966;11.038;2023-03-14T17:34:16;5.47;;;1.63;;
30380;SDS011;17169;50.966;11.038;2023-03-14T17:37:19;6.95;;;1.67;;
30380;SDS011;17169;50.966;11.038;2023-03-14T17:40:22;10.85;;;2.22;;
30380;SDS011;17169;50.966;11.038;2023-03-14T17:43:25;3.30;;;1.52;;
30380;SDS011;17169;50.966;11.038;2023-03-14T17:46:27;6.72;;;1.40;;
30380;SDS011;17169;50.966;11.038;2023-03-14T17:49:29;6.07;;;1.60;;
30380;SDS011;17169;50.966;11.038;2023-03-14T17:52:32;5.00;;;1.55;;
30380;SDS011;17169;50.966;11.038;2023-03-14T17:55:37;6.88;;;1.73;;
30380;SDS011;17169;50.966;11.038;2023-03-14T17:58:39;9.70;;;2.08;;
30380;SDS011;17169;50.966;11.038;2023-03-14T18:01:43;5.63;;;1.90;;
30380;SDS011;17169;50.966;11.038;2023-03-14T18:04:46;5.38;;;1.80;;
30380;SDS011;17169;50.966;11.038;2023-03-14T18:07:48;10.45;;;1.85;;
30380;SDS011;17169;50.966;11.038;2023-03-14T18:10:53;11.68;;;2.30;;
30380;SDS011;17169;50.966;11.038;2023-03-14T18:13:55;11.05;;;2.20;;
30380;SDS011;17169;50.966;11.038;2023-03-14T18:17:01;12.02;;;2.83;;
30380;SDS011;17169;50.966;11.038;2023-03-14T18:20:03;17.63;;;3.20;;
30380;SDS011;17169;50.966;11.038;2023-03-14T18:23:11;11.90;;;2.60;;
30380;SDS011;17169;50.966;11.038;2023-03-14T18:26:15;12.00;;;3.28;;
30380;SDS011;17169;50.966;11.038;2023-03-14T18:29:17;11.93;;;2.35;;
30380;SDS011;17169;50.966;11.038;2023-03-14T18:32:21;9.38;;;2.65;;